Time;durP1;ratioP1;P1;durP2;ratioP2;P2;SDS_P1;SDS_P2;PMS_P1;PMS_P2;Temp;Humidity;BMP_temperature;BMP_pressure;BME280_temperature;BME280_humidity;BME280_pressure;Samples;Min_cycle;Max_cycle;Signal;HPM_P1;HPM_P2
2022/05/10 00:01:23;;;;;;;5.18;2.63;;;;;;;;;;5071932;28;20028;-51
2022/05/10 00:03:50;;;;;;;3.97;2.35;;;;;;;;;;5074203;28;20142;-51
2022/05/10 00:06:16;;;;;;;4.38;2.65;;;;;;;;;;5075297;28;20036;-51
2022/05/10 00:08:42;;;;;;;5.13;2.50;;;;;;;;;;5072963;28;20029;-54
2022/05/10 00:11:09;;;;;;;3.65;2.25;;;;;;;;;;5067274;28;20100;-53
2022/05/10 00:13:35;;;;;;;6.18;2.80;;;;;;;;;;5061804;28;20028;-51
2022/05/10 00:16:01;;;;;;;4.47;2.30;;;;;;;;;;5075627;28;20480;-54
2022/05/10 00:18:29;;;;;;;4.20;2.35;;;;;;;;;;5067104;28;20068;-53
2022/05/10 00:20:55;;;;;;;8.88;2.92;;;;;;;;;;5070346;28;20426;-55
2022/05/10 00:23:21;;;;;;;5.00;2.65;;;;;;;;;;5078503;28;20043;-52
2022/05/10 00:25:47;;;;;;;6.53;2.85;;;;;;;;;;5069660;28;20100;-51
2022/05/10 00:28:13;;;;;;;6.03;2.72;;;;;;;;;;5063324;28;20031;-55
2022/05/10 00:30:39;;;;;;;6.13;2.45;;;;;;;;;;5070058;28;20016;-53
2022/05/10 00:33:05;;;;;;;8.77;2.97;;;;;;;;;;5067970;28;20107;-53
2022/05/10 00:35:33;;;;;;;7.47;3.33;;;;;;;;;;5068827;28;20040;-52
2022/05/10 00:38:00;;;;;;;8.13;2.65;;;;;;;;;;5072738;28;20071;-52
2022/05/10 00:40:28;;;;;;;10.63;2.63;;;;;;;;;;5071398;28;20041;-54
2022/05/10 00:43:08;;;;;;;6.70;2.30;;;;;;;;;;5069717;28;20032;-52
2022/05/10 00:45:39;;;;;;;6.72;2.35;;;;;;;;;;5072752;28;20028;-52
2022/05/10 00:48:09;;;;;;;5.93;2.97;;;;;;;;;;5066464;28;20108;-53
2022/05/10 00:50:38;;;;;;;5.88;2.63;;;;;;;;;;5071940;28;20025;-51
2022/05/10 00:53:07;;;;;;;4.60;2.85;;;;;;;;;;5076442;28;20024;-51
2022/05/10 00:55:39;;;;;;;5.25;2.90;;;;;;;;;;5072752;28;20031;-51
2022/05/10 00:58:10;;;;;;;7.13;2.70;;;;;;;;;;5071680;28;20028;-52
2022/05/10 01:00:37;;;;;;;4.32;2.60;;;;;;;;;;5072658;28;20049;-47
2022/05/10 01:03:06;;;;;;;5.60;2.42;;;;;;;;;;5072634;28;20033;-47
2022/05/10 01:05:44;;;;;;;7.05;3.08;;;;;;;;;;5076951;28;20036;-48
2022/05/10 01:08:10;;;;;;;5.72;3.15;;;;;;;;;;5069853;28;20296;-49
2022/05/10 01:11:10;;;;;;;7.05;2.53;;;;;;;;;;5072180;28;20423;-47
2022/05/10 01:13:46;;;;;;;6.13;2.72;;;;;;;;;;5019780;28;20047;-47
2022/05/10 01:16:14;;;;;;;8.45;2.75;;;;;;;;;;5070951;28;20479;-48
2022/05/10 01:18:41;;;;;;;7.68;3.25;;;;;;;;;;5081442;28;20056;-48
2022/05/10 01:21:24;;;;;;;7.07;3.00;;;;;;;;;;5072541;28;20036;-48
2022/05/10 01:24:14;;;;;;;6.47;3.20;;;;;;;;;;5064299;28;20115;-47
2022/05/10 01:26:43;;;;;;;7.40;3.42;;;;;;;;;;5060995;28;20029;-47
2022/05/10 01:29:13;;;;;;;6.63;2.80;;;;;;;;;;5070015;28;20025;-46
2022/05/10 01:31:45;;;;;;;4.43;2.58;;;;;;;;;;5068804;28;20473;-47
2022/05/10 01:34:13;;;;;;;6.60;3.15;;;;;;;;;;5070160;28;20392;-47
2022/05/10 01:36:43;;;;;;;8.98;3.20;;;;;;;;;;5071650;28;20026;-48
2022/05/10 01:39:27;;;;;;;9.15;3.42;;;;;;;;;;5071762;28;20039;-49
2022/05/10 01:41:57;;;;;;;5.72;3.08;;;;;;;;;;5071666;28;20028;-47
2022/05/10 01:44:49;;;;;;;6.40;2.97;;;;;;;;;;5071825;28;20031;-51
2022/05/10 01:47:25;;;;;;;5.30;2.70;;;;;;;;;;5037164;28;20456;-49
2022/05/10 01:50:02;;;;;;;6.05;2.90;;;;;;;;;;5064109;28;20032;-47
2022/05/10 01:52:42;;;;;;;6.03;2.72;;;;;;;;;;5058930;28;20103;-49
2022/05/10 01:55:19;;;;;;;7.50;3.05;;;;;;;;;;5070601;28;20112;-47
2022/05/10 01:57:45;;;;;;;5.75;3.03;;;;;;;;;;5061741;28;20111;-47
2022/05/10 02:00:13;;;;;;;5.95;2.97;;;;;;;;;;5071084;28;20100;-47
2022/05/10 02:02:41;;;;;;;6.75;2.83;;;;;;;;;;5072004;28;20036;-49
2022/05/10 02:05:09;;;;;;;4.15;2.80;;;;;;;;;;5071312;28;20027;-48
2022/05/10 02:07:37;;;;;;;9.25;3.42;;;;;;;;;;5071256;28;20040;-49
2022/05/10 02:10:09;;;;;;;8.23;3.33;;;;;;;;;;5070492;28;20032;-50
2022/05/10 02:12:39;;;;;;;8.70;3.00;;;;;;;;;;5072648;28;20497;-47
2022/05/10 02:15:11;;;;;;;5.50;3.10;;;;;;;;;;5062061;28;20107;-48
2022/05/10 02:17:50;;;;;;;5.00;2.88;;;;;;;;;;5071188;28;20138;-48
2022/05/10 02:20:23;;;;;;;7.25;2.85;;;;;;;;;;5070796;28;20125;-46
2022/05/10 02:22:55;;;;;;;7.50;2.70;;;;;;;;;;5068573;28;20447;-49
2022/05/10 02:25:25;;;;;;;6.57;3.00;;;;;;;;;;5070552;28;20043;-49
2022/05/10 02:27:52;;;;;;;5.57;2.58;;;;;;;;;;5051501;28;20036;-48
2022/05/10 02:30:23;;;;;;;7.57;2.90;;;;;;;;;;5069284;28;20031;-47
2022/05/10 02:33:06;;;;;;;4.88;2.72;;;;;;;;;;5062317;28;20515;-47
2022/05/10 02:35:32;;;;;;;;;;;;;;;;;;5077588;28;20385;-48
2022/05/10 02:37:58;;;;;;;5.38;2.83;;;;;;;;;;5070122;28;19905;-49
2022/05/10 02:40:24;;;;;;;10.35;3.00;;;;;;;;;;5070666;28;20484;-48
2022/05/10 02:42:50;;;;;;;7.18;3.40;;;;;;;;;;5070773;28;20499;-52
2022/05/10 02:45:18;;;;;;;4.32;2.65;;;;;;;;;;5070169;28;20449;-46
2022/05/10 02:47:44;;;;;;;7.88;3.10;;;;;;;;;;5065623;28;20052;-50
2022/05/10 02:50:32;;;;;;;4.97;2.83;;;;;;;;;;5071225;28;20082;-47
2022/05/10 02:52:58;;;;;;;9.15;3.50;;;;;;;;;;5063248;28;20103;-52
2022/05/10 02:55:29;;;;;;;8.43;2.97;;;;;;;;;;5074681;28;20488;-48
2022/05/10 02:58:00;;;;;;;8.13;3.22;;;;;;;;;;5070478;28;20082;-48
2022/05/10 03:00:26;;;;;;;8.60;3.28;;;;;;;;;;5070625;28;20064;-47
2022/05/10 03:02:54;;;;;;;5.95;3.13;;;;;;;;;;5065865;28;20108;-47
2022/05/10 03:05:20;;;;;;;6.30;3.10;;;;;;;;;;5070142;28;20024;-50
2022/05/10 03:07:46;;;;;;;11.00;3.35;;;;;;;;;;5075900;28;20016;-47
2022/05/10 03:10:12;;;;;;;6.22;3.42;;;;;;;;;;5070510;28;20027;-46
2022/05/10 03:12:38;;;;;;;6.43;3.03;;;;;;;;;;5075433;28;20111;-51
2022/05/10 03:15:05;;;;;;;5.78;2.95;;;;;;;;;;5071038;28;20087;-48
2022/05/10 03:17:31;;;;;;;5.25;3.20;;;;;;;;;;5070338;28;20115;-47
2022/05/10 03:19:57;;;;;;;7.15;3.50;;;;;;;;;;5075801;28;20051;-48
2022/05/10 03:22:23;;;;;;;4.50;2.83;;;;;;;;;;5067024;28;20464;-51
2022/05/10 03:24:49;;;;;;;6.47;3.22;;;;;;;;;;5058264;28;20396;-48
2022/05/10 03:27:16;;;;;;;9.32;3.65;;;;;;;;;;5078237;28;20502;-47
2022/05/10 03:29:42;;;;;;;5.82;3.30;;;;;;;;;;5070778;28;20035;-48
2022/05/10 03:32:09;;;;;;;6.75;3.47;;;;;;;;;;5063200;28;20465;-49
2022/05/10 03:37:20;;;;;;;6.13;3.33;;;;;;;;;;5070039;28;20070;-47
2022/05/10 03:39:46;;;;;;;9.35;4.38;;;;;;;;;;5066290;28;20035;-49
2022/05/10 03:42:12;;;;;;;6.25;2.72;;;;;;;;;;5069550;28;20107;-47
2022/05/10 03:44:38;;;;;;;8.82;3.50;;;;;;;;;;5075165;28;20082;-49
2022/05/10 03:47:05;;;;;;;7.05;3.30;;;;;;;;;;5070443;28;20025;-48
2022/05/10 03:49:31;;;;;;;7.53;4.03;;;;;;;;;;5062613;28;20404;-47
2022/05/10 03:51:57;;;;;;;4.63;3.08;;;;;;;;;;5076549;28;20016;-47
2022/05/10 03:54:24;;;;;;;7.55;3.33;;;;;;;;;;5074901;28;20167;-48
2022/05/10 03:56:50;;;;;;;6.20;3.33;;;;;;;;;;5070731;28;20040;-52
2022/05/10 03:59:17;;;;;;;8.00;3.22;;;;;;;;;;5074194;28;20029;-49
2022/05/10 04:01:43;;;;;;;10.05;3.67;;;;;;;;;;5066929;28;20035;-50
2022/05/10 04:04:09;;;;;;;6.93;3.05;;;;;;;;;;5055837;28;20071;-49
2022/05/10 04:06:35;;;;;;;5.13;2.90;;;;;;;;;;5071955;28;20028;-48
2022/05/10 04:09:01;;;;;;;6.65;3.33;;;;;;;;;;5073673;28;20468;-48
2022/05/10 04:11:27;;;;;;;7.63;3.55;;;;;;;;;;5069955;28;20029;-50
2022/05/10 04:13:53;;;;;;;6.55;2.83;;;;;;;;;;5071495;28;20068;-48
2022/05/10 04:16:19;;;;;;;8.52;3.78;;;;;;;;;;5077110;28;20430;-49
2022/05/10 04:18:45;;;;;;;7.85;4.00;;;;;;;;;;5078818;28;20105;-48
2022/05/10 04:21:11;;;;;;;10.73;3.53;;;;;;;;;;5074015;28;20487;-50
2022/05/10 04:23:37;;;;;;;8.02;3.20;;;;;;;;;;5070470;28;20032;-49
2022/05/10 04:26:07;;;;;;;8.93;3.80;;;;;;;;;;5062943;28;20020;-48
2022/05/10 04:28:34;;;;;;;7.38;3.78;;;;;;;;;;5075414;28;20078;-49
2022/05/10 04:31:00;;;;;;;7.88;3.65;;;;;;;;;;5062450;28;20107;-49
2022/05/10 04:33:26;;;;;;;8.10;3.13;;;;;;;;;;5065579;28;20104;-46
2022/05/10 04:35:52;;;;;;;7.53;3.05;;;;;;;;;;5072840;28;20086;-47
2022/05/10 04:38:18;;;;;;;8.73;4.18;;;;;;;;;;5065010;28;20041;-47
2022/05/10 04:43:30;;;;;;;5.47;3.28;;;;;;;;;;5067368;28;20043;-47
2022/05/10 04:45:56;;;;;;;7.05;3.25;;;;;;;;;;5052294;28;20594;-48
2022/05/10 04:48:22;;;;;;;7.63;3.20;;;;;;;;;;5054476;28;20033;-49
2022/05/10 04:50:48;;;;;;;8.32;3.45;;;;;;;;;;5051314;28;20488;-52
2022/05/10 04:53:14;;;;;;;8.70;3.72;;;;;;;;;;5055334;28;20025;-51
2022/05/10 04:55:40;;;;;;;8.30;3.83;;;;;;;;;;5058178;28;20048;-52
2022/05/10 04:58:06;;;;;;;8.38;3.65;;;;;;;;;;5058684;28;20021;-49
2022/05/10 05:00:32;;;;;;;9.95;4.60;;;;;;;;;;5067648;28;20028;-49
2022/05/10 05:02:58;;;;;;;8.10;3.05;;;;;;;;;;5072733;28;20035;-51
2022/05/10 05:05:24;;;;;;;5.28;3.33;;;;;;;;;;5080010;28;20036;-48
2022/05/10 05:07:50;;;;;;;7.15;3.50;;;;;;;;;;5061564;28;20083;-50
2022/05/10 05:10:16;;;;;;;10.10;3.67;;;;;;;;;;5066145;28;20024;-52
2022/05/10 05:12:42;;;;;;;9.07;4.20;;;;;;;;;;5053980;28;20029;-51
2022/05/10 05:15:10;;;;;;;11.18;3.30;;;;;;;;;;5068095;28;20099;-47
2022/05/10 05:17:36;;;;;;;5.93;3.08;;;;;;;;;;5064092;28;20093;-49
2022/05/10 05:20:02;;;;;;;7.95;3.70;;;;;;;;;;5054407;28;20575;-47
2022/05/10 05:22:30;;;;;;;7.07;3.35;;;;;;;;;;5059673;28;20060;-47
2022/05/10 05:24:56;;;;;;;7.15;3.70;;;;;;;;;;5057961;28;20108;-47
2022/05/10 05:27:21;;;;;;;8.98;3.58;;;;;;;;;;5063395;28;20029;-46
2022/05/10 05:29:48;;;;;;;6.20;3.53;;;;;;;;;;5070051;28;20031;-47
2022/05/10 05:32:14;;;;;;;9.55;4.18;;;;;;;;;;5063640;28;20044;-49
2022/05/10 05:34:40;;;;;;;6.97;3.53;;;;;;;;;;5064750;28;20111;-49
2022/05/10 05:39:51;;;;;;;7.75;3.85;;;;;;;;;;5062957;28;20550;-49
2022/05/10 05:42:18;;;;;;;10.93;4.03;;;;;;;;;;5060690;28;20468;-52
2022/05/10 05:44:44;;;;;;;5.30;3.17;;;;;;;;;;5055866;28;20491;-51
2022/05/10 05:47:10;;;;;;;5.78;3.22;;;;;;;;;;5053087;28;20037;-51
2022/05/10 05:49:36;;;;;;;7.90;3.70;;;;;;;;;;5066361;28;20541;-50
2022/05/10 05:52:03;;;;;;;7.35;3.50;;;;;;;;;;5059573;28;20024;-52
2022/05/10 05:54:31;;;;;;;8.00;3.15;;;;;;;;;;5058640;28;20029;-51
2022/05/10 05:57:01;;;;;;;6.85;4.18;;;;;;;;;;5062917;28;20074;-49
2022/05/10 05:59:27;;;;;;;10.98;3.67;;;;;;;;;;5070613;28;20039;-48
2022/05/10 06:01:53;;;;;;;10.55;3.72;;;;;;;;;;5062430;28;20059;-48
2022/05/10 06:04:19;;;;;;;7.63;3.88;;;;;;;;;;5063844;28;20468;-47
2022/05/10 06:06:45;;;;;;;9.55;3.75;;;;;;;;;;5058226;28;20047;-50
2022/05/10 06:09:11;;;;;;;6.65;3.33;;;;;;;;;;5068874;28;20032;-48
2022/05/10 06:11:38;;;;;;;6.88;3.30;;;;;;;;;;5067136;28;20025;-47
2022/05/10 06:14:04;;;;;;;6.93;2.85;;;;;;;;;;5060174;28;20333;-47
2022/05/10 06:16:30;;;;;;;7.18;3.85;;;;;;;;;;5059891;28;20044;-49
2022/05/10 06:18:56;;;;;;;10.00;2.85;;;;;;;;;;5062152;28;20048;-49
2022/05/10 06:21:23;;;;;;;11.05;3.83;;;;;;;;;;5070417;28;20085;-49
2022/05/10 06:23:49;;;;;;;6.53;3.15;;;;;;;;;;5069058;28;20380;-48
2022/05/10 06:26:15;;;;;;;8.77;2.97;;;;;;;;;;5065900;28;20083;-48
2022/05/10 06:28:41;;;;;;;5.72;3.03;;;;;;;;;;5063953;28;20098;-51
2022/05/10 06:31:08;;;;;;;9.65;3.53;;;;;;;;;;5066245;28;20535;-49
2022/05/10 06:33:34;;;;;;;6.03;2.70;;;;;;;;;;5060717;28;20552;-51
2022/05/10 06:36:00;;;;;;;9.82;3.92;;;;;;;;;;5062549;28;20025;-49
2022/05/10 06:38:27;;;;;;;8.82;3.42;;;;;;;;;;5068304;28;20036;-51
2022/05/10 06:40:54;;;;;;;6.75;3.17;;;;;;;;;;5064401;28;20029;-49
2022/05/10 06:43:20;;;;;;;9.45;3.22;;;;;;;;;;5065489;28;20443;-50
2022/05/10 06:45:46;;;;;;;6.47;2.72;;;;;;;;;;5054571;28;20036;-46
2022/05/10 06:48:13;;;;;;;7.25;3.30;;;;;;;;;;5068927;28;20476;-46
2022/05/10 06:50:40;;;;;;;8.35;3.38;;;;;;;;;;5067791;28;20029;-48
2022/05/10 06:53:06;;;;;;;6.93;2.88;;;;;;;;;;5063036;28;20035;-50
2022/05/10 06:55:33;;;;;;;5.57;2.92;;;;;;;;;;5055325;28;20017;-50
2022/05/10 06:58:01;;;;;;;13.77;3.45;;;;;;;;;;5064659;28;20024;-50
2022/05/10 07:00:27;;;;;;;8.40;2.47;;;;;;;;;;5051430;28;20021;-49
2022/05/10 07:02:53;;;;;;;5.82;3.20;;;;;;;;;;5058481;28;20029;-47
2022/05/10 07:05:20;;;;;;;6.50;2.78;;;;;;;;;;5059443;28;20431;-51
2022/05/10 07:07:46;;;;;;;5.75;2.63;;;;;;;;;;5056371;28;20040;-47
2022/05/10 07:10:13;;;;;;;6.22;2.88;;;;;;;;;;5043887;28;20029;-51
2022/05/10 07:12:40;;;;;;;9.45;2.60;;;;;;;;;;5065630;28;20038;-48
2022/05/10 07:15:07;;;;;;;6.90;2.85;;;;;;;;;;5050115;28;20028;-48
2022/05/10 07:17:33;;;;;;;9.07;2.70;;;;;;;;;;5067376;28;20041;-46
2022/05/10 07:19:59;;;;;;;7.50;2.60;;;;;;;;;;5066019;28;20087;-50
2022/05/10 07:22:25;;;;;;;7.38;2.80;;;;;;;;;;5063641;28;20464;-51
2022/05/10 07:24:51;;;;;;;8.30;2.75;;;;;;;;;;5064940;28;20036;-52
2022/05/10 07:27:17;;;;;;;3.90;2.40;;;;;;;;;;5058572;28;20029;-49
2022/05/10 07:29:43;;;;;;;6.63;2.58;;;;;;;;;;5074283;28;20112;-47
2022/05/10 07:32:10;;;;;;;6.38;2.22;;;;;;;;;;5074362;28;20048;-47
2022/05/10 07:34:36;;;;;;;6.13;2.50;;;;;;;;;;5059310;28;20132;-47
2022/05/10 07:37:02;;;;;;;6.93;2.80;;;;;;;;;;5073393;28;20021;-48
2022/05/10 07:39:29;;;;;;;4.45;2.20;;;;;;;;;;5065826;28;20078;-48
2022/05/10 07:41:55;;;;;;;7.07;2.60;;;;;;;;;;5067921;28;20039;-50
2022/05/10 07:44:22;;;;;;;10.15;2.97;;;;;;;;;;5071947;28;20404;-47
2022/05/10 07:46:48;;;;;;;6.47;2.33;;;;;;;;;;5071191;28;20032;-47
2022/05/10 07:49:14;;;;;;;5.38;2.80;;;;;;;;;;5066143;28;20020;-49
2022/05/10 07:51:41;;;;;;;7.57;3.05;;;;;;;;;;5073719;28;20400;-51
2022/05/10 07:54:07;;;;;;;5.47;2.60;;;;;;;;;;5073728;28;20021;-46
2022/05/10 07:56:33;;;;;;;5.93;2.55;;;;;;;;;;5069686;28;20333;-50
2022/05/10 07:58:59;;;;;;;7.00;2.88;;;;;;;;;;5073953;28;20029;-51
2022/05/10 08:01:26;;;;;;;3.72;2.35;;;;;;;;;;5072967;28;20035;-49
2022/05/10 08:03:52;;;;;;;14.60;2.63;;;;;;;;;;5073601;28;20021;-50
2022/05/10 08:06:20;;;;;;;5.93;2.50;;;;;;;;;;5073864;28;20121;-47
2022/05/10 08:08:46;;;;;;;3.42;2.17;;;;;;;;;;5051174;28;20503;-49
2022/05/10 08:11:12;;;;;;;7.00;2.40;;;;;;;;;;5073312;28;20029;-51
2022/05/10 08:13:39;;;;;;;8.57;2.20;;;;;;;;;;5067156;28;20385;-51
2022/05/10 08:16:08;;;;;;;4.97;2.40;;;;;;;;;;5073767;28;20103;-52
2022/05/10 08:18:35;;;;;;;6.03;2.75;;;;;;;;;;5073582;28;20494;-49
2022/05/10 08:21:01;;;;;;;5.40;2.55;;;;;;;;;;5064937;28;20033;-49
2022/05/10 08:23:31;;;;;;;4.38;1.98;;;;;;;;;;5064793;28;20051;-52
2022/05/10 08:25:58;;;;;;;6.45;2.22;;;;;;;;;;5059385;28;20040;-48
2022/05/10 08:28:25;;;;;;;6.72;2.95;;;;;;;;;;5073645;28;20029;-47
2022/05/10 08:30:51;;;;;;;8.00;2.40;;;;;;;;;;5064604;28;20404;-48
2022/05/10 08:33:23;;;;;;;7.10;2.08;;;;;;;;;;5071334;28;20040;-49
2022/05/10 08:35:49;;;;;;;6.78;1.92;;;;;;;;;;5059478;28;20488;-48
2022/05/10 08:38:15;;;;;;;4.88;2.15;;;;;;;;;;5066346;28;20559;-47
2022/05/10 08:41:01;;;;;;;6.45;2.45;;;;;;;;;;5072159;28;20403;-51
2022/05/10 08:43:29;;;;;;;5.97;2.42;;;;;;;;;;5050854;28;20045;-47
2022/05/10 08:45:55;;;;;;;3.70;1.30;;;;;;;;;;5072577;28;20107;-50
2022/05/10 08:48:23;;;;;;;7.30;2.30;;;;;;;;;;5067548;28;20393;-50
2022/05/10 08:50:49;;;;;;;7.30;2.08;;;;;;;;;;5062207;28;20048;-51
2022/05/10 08:53:16;;;;;;;4.68;2.00;;;;;;;;;;5052090;28;20499;-51
2022/05/10 08:55:46;;;;;;;6.93;2.22;;;;;;;;;;5073010;28;20032;-53
2022/05/10 08:58:29;;;;;;;7.55;2.30;;;;;;;;;;5057738;28;20060;-48
2022/05/10 09:01:00;;;;;;;5.10;1.83;;;;;;;;;;5061787;28;20055;-48
2022/05/10 09:03:31;;;;;;;5.38;2.13;;;;;;;;;;5068169;28;20040;-51
2022/05/10 09:06:00;;;;;;;6.32;2.03;;;;;;;;;;5058133;28;20111;-53
2022/05/10 09:08:46;;;;;;;5.63;2.15;;;;;;;;;;5059910;28;20400;-49
2022/05/10 09:11:14;;;;;;;4.13;2.13;;;;;;;;;;5064908;28;20028;-53
2022/05/10 09:13:41;;;;;;;5.10;1.83;;;;;;;;;;5062587;28;20024;-52
2022/05/10 09:16:11;;;;;;;9.43;2.17;;;;;;;;;;5060152;28;20107;-49
2022/05/10 09:18:39;;;;;;;3.40;1.60;;;;;;;;;;5062404;28;20036;-48
2022/05/10 09:21:24;;;;;;;6.50;1.80;;;;;;;;;;5069175;28;20365;-48
2022/05/10 09:24:09;;;;;;;5.03;1.80;;;;;;;;;;5063073;28;20029;-49
2022/05/10 09:26:36;;;;;;;4.47;1.30;;;;;;;;;;5060072;28;20392;-48
2022/05/10 09:29:21;;;;;;;7.68;2.65;;;;;;;;;;5066708;28;20060;-47
2022/05/10 09:34:47;;;;;;;5.93;1.50;;;;;;;;;;5059183;28;20071;-47
2022/05/10 09:37:31;;;;;;;6.32;1.80;;;;;;;;;;5055440;28;20024;-49
2022/05/10 09:39:56;;;;;;;;;;;;;;;;;;5053391;28;20037;-52
2022/05/10 09:42:26;;;;;;;5.32;1.50;;;;;;;;;;5060587;28;19990;-49
2022/05/10 09:44:58;;;;;;;3.50;1.52;;;;;;;;;;5051762;28;20032;-51
2022/05/10 09:47:24;;;;;;;3.72;1.50;;;;;;;;;;5061131;28;20490;-51
2022/05/10 09:49:51;;;;;;;4.30;1.45;;;;;;;;;;5063612;28;20021;-51
2022/05/10 09:52:19;;;;;;;9.43;2.13;;;;;;;;;;5066609;28;20035;-48
2022/05/10 09:54:46;;;;;;;3.28;1.30;;;;;;;;;;5060286;28;20021;-48
2022/05/10 09:57:24;;;;;;;5.43;1.80;;;;;;;;;;5071474;28;20032;-48
2022/05/10 09:59:50;;;;;;;4.32;1.70;;;;;;;;;;5071133;28;20391;-47
2022/05/10 10:02:33;;;;;;;4.88;1.20;;;;;;;;;;5071627;28;20039;-49
2022/05/10 10:05:00;;;;;;;3.47;1.20;;;;;;;;;;5069747;28;20554;-50
2022/05/10 10:07:28;;;;;;;4.28;1.50;;;;;;;;;;5068048;28;20527;-48
2022/05/10 10:09:55;;;;;;;4.45;1.85;;;;;;;;;;5057570;28;20416;-47
2022/05/10 10:12:31;;;;;;;4.28;1.10;;;;;;;;;;5058091;28;20024;-53
2022/05/10 10:14:57;;;;;;;2.53;1.10;;;;;;;;;;5071268;28;20537;-53
2022/05/10 10:17:25;;;;;;;4.95;1.50;;;;;;;;;;5070765;28;20052;-51
2022/05/10 10:20:00;;;;;;;2.08;1.10;;;;;;;;;;5064122;28;20594;-50
2022/05/10 10:22:39;;;;;;;1.85;1.25;;;;;;;;;;5069986;28;20056;-52
2022/05/10 10:25:09;;;;;;;3.45;1.33;;;;;;;;;;5070860;28;20036;-49
2022/05/10 10:27:41;;;;;;;2.15;1.10;;;;;;;;;;5064985;28;20040;-50
2022/05/10 10:30:17;;;;;;;4.65;1.30;;;;;;;;;;5067656;28;20039;-51
2022/05/10 10:32:46;;;;;;;2.00;1.35;;;;;;;;;;5059849;28;20565;-51
2022/05/10 10:35:18;;;;;;;3.08;1.40;;;;;;;;;;5067519;28;20023;-48
2022/05/10 10:37:44;;;;;;;4.50;1.52;;;;;;;;;;5048590;28;20025;-49
2022/05/10 10:40:19;;;;;;;1.73;1.20;;;;;;;;;;5043998;28;20120;-51
2022/05/10 10:42:57;;;;;;;3.15;1.33;;;;;;;;;;5060981;28;20025;-53
2022/05/10 10:45:30;;;;;;;3.70;1.70;;;;;;;;;;5067477;28;20037;-51
2022/05/10 10:48:15;;;;;;;7.57;1.25;;;;;;;;;;5069199;28;20029;-53
2022/05/10 10:50:41;;;;;;;2.05;1.20;;;;;;;;;;5080769;28;20048;-52
2022/05/10 10:53:09;;;;;;;3.53;1.45;;;;;;;;;;5065381;28;20028;-53
2022/05/10 10:55:41;;;;;;;2.05;1.38;;;;;;;;;;5055935;28;20029;-51
2022/05/10 10:58:18;;;;;;;4.15;1.58;;;;;;;;;;5068235;28;20033;-52
2022/05/10 11:00:47;;;;;;;3.50;1.30;;;;;;;;;;5062785;28;20046;-53
2022/05/10 11:03:20;;;;;;;3.05;1.48;;;;;;;;;;5067561;28;20024;-51
2022/05/10 11:06:05;;;;;;;3.00;1.70;;;;;;;;;;5071028;28;20025;-51
2022/05/10 11:08:47;;;;;;;2.45;1.30;;;;;;;;;;5061167;28;20492;-51
2022/05/10 11:11:16;;;;;;;4.57;1.50;;;;;;;;;;5068089;28;20021;-49
2022/05/10 11:13:49;;;;;;;3.05;1.40;;;;;;;;;;5059596;28;20497;-54
2022/05/10 11:16:15;;;;;;;4.70;1.60;;;;;;;;;;5064252;28;20499;-52
2022/05/10 11:18:50;;;;;;;1.30;0.95;;;;;;;;;;5064013;28;20052;-51
2022/05/10 11:21:28;;;;;;;4.32;1.17;;;;;;;;;;5071157;28;20087;-52
2022/05/10 11:24:03;;;;;;;4.90;1.10;;;;;;;;;;5073253;28;20442;-50
2022/05/10 11:26:36;;;;;;;4.65;1.05;;;;;;;;;;5069597;28;20020;-53
2022/05/10 11:29:23;;;;;;;2.65;1.00;;;;;;;;;;5067426;28;20035;-52
2022/05/10 11:32:07;;;;;;;1.88;1.20;;;;;;;;;;5064292;28;20036;-50
2022/05/10 11:34:43;;;;;;;2.95;1.15;;;;;;;;;;5061380;28;20446;-47
2022/05/10 11:37:11;;;;;;;5.07;1.30;;;;;;;;;;5072621;28;20479;-53
2022/05/10 11:39:45;;;;;;;4.07;1.33;;;;;;;;;;5072815;28;20025;-50
2022/05/10 11:42:20;;;;;;;3.67;1.13;;;;;;;;;;5068922;28;20101;-51
2022/05/10 11:44:57;;;;;;;1.73;1.38;;;;;;;;;;5064815;28;20021;-49
2022/05/10 11:47:44;;;;;;;2.28;1.20;;;;;;;;;;5055605;28;20528;-49
2022/05/10 11:50:17;;;;;;;3.90;1.50;;;;;;;;;;5029387;28;20029;-48
2022/05/10 11:53:03;;;;;;;4.78;1.58;;;;;;;;;;5068442;28;20032;-51
2022/05/10 11:55:42;;;;;;;2.25;1.17;;;;;;;;;;5057541;28;20021;-51
2022/05/10 11:58:09;;;;;;;2.05;1.40;;;;;;;;;;5060957;28;20461;-51
2022/05/10 12:00:35;;;;;;;4.18;1.20;;;;;;;;;;5072099;28;20016;-49
2022/05/10 12:03:02;;;;;;;4.07;1.30;;;;;;;;;;5068677;28;20472;-51
2022/05/10 12:05:29;;;;;;;4.38;1.13;;;;;;;;;;5061039;28;20119;-51
2022/05/10 12:07:55;;;;;;;5.50;1.50;;;;;;;;;;5067126;28;20056;-48
2022/05/10 12:10:41;;;;;;;1.85;1.20;;;;;;;;;;5065093;28;20036;-52
2022/05/10 12:13:10;;;;;;;2.65;1.30;;;;;;;;;;5061782;28;20066;-52
2022/05/10 12:21:32;;;;;;;5.20;1.60;;;;;;;;;;5066494;28;20420;-53
2022/05/10 12:24:11;;;;;;;3.20;1.23;;;;;;;;;;5055695;28;20084;-51
2022/05/10 12:26:45;;;;;;;2.55;1.50;;;;;;;;;;5071673;28;20024;-52
2022/05/10 12:29:36;;;;;;;2.08;1.40;;;;;;;;;;5062359;28;20067;-53
2022/05/10 12:32:03;;;;;;;2.75;1.40;;;;;;;;;;5061394;28;20087;-50
2022/05/10 12:34:43;;;;;;;2.65;1.10;;;;;;;;;;5057446;28;20029;-49
2022/05/10 12:37:26;;;;;;;1.73;1.23;;;;;;;;;;5065414;28;20148;-50
2022/05/10 12:40:15;;;;;;;4.17;1.20;;;;;;;;;;5062190;28;20033;-49
2022/05/10 12:42:59;;;;;;;3.30;1.20;;;;;;;;;;5060771;28;20263;-51
2022/05/10 12:45:37;;;;;;;2.85;1.50;;;;;;;;;;5065789;28;20064;-52
2022/05/10 12:48:10;;;;;;;2.70;1.20;;;;;;;;;;5063077;28;20170;-52
2022/05/10 12:50:56;;;;;;;2.05;1.20;;;;;;;;;;5056184;28;20436;-49
2022/05/10 12:53:29;;;;;;;1.95;1.33;;;;;;;;;;5057086;28;20040;-51
2022/05/10 12:56:02;;;;;;;2.33;1.10;;;;;;;;;;5059604;28;20101;-52
2022/05/10 12:58:30;;;;;;;1.77;1.20;;;;;;;;;;5058701;28;20498;-48
2022/05/10 13:00:58;;;;;;;1.80;1.15;;;;;;;;;;5056061;28;20036;-49
2022/05/10 13:03:26;;;;;;;2.67;1.27;;;;;;;;;;5062124;28;20033;-52
2022/05/10 13:06:02;;;;;;;8.70;1.52;;;;;;;;;;5053607;28;20033;-52
2022/05/10 13:08:29;;;;;;;4.90;1.23;;;;;;;;;;5066927;28;20522;-48
2022/05/10 13:10:55;;;;;;;1.98;1.35;;;;;;;;;;5058184;28;20033;-54
2022/05/10 13:13:26;;;;;;;2.17;1.10;;;;;;;;;;5059298;28;20572;-51
2022/05/10 13:15:54;;;;;;;2.20;1.08;;;;;;;;;;5065172;28;20405;-49
2022/05/10 13:18:22;;;;;;;3.75;1.17;;;;;;;;;;5056920;28;20025;-53
2022/05/10 13:20:50;;;;;;;4.07;1.45;;;;;;;;;;5055178;28;20094;-51
2022/05/10 13:23:17;;;;;;;2.33;1.10;;;;;;;;;;5063490;28;20017;-48
2022/05/10 13:25:43;;;;;;;1.70;1.20;;;;;;;;;;5058098;28;20078;-52
2022/05/10 13:28:15;;;;;;;2.33;1.10;;;;;;;;;;5068548;28;20024;-51
2022/05/10 13:30:43;;;;;;;2.08;1.15;;;;;;;;;;5054970;28;20083;-50
2022/05/10 13:33:13;;;;;;;3.70;1.92;;;;;;;;;;5057941;28;20114;-50
2022/05/10 13:35:39;;;;;;;1.63;1.05;;;;;;;;;;5072185;28;20028;-51
2022/05/10 13:38:13;;;;;;;3.38;1.33;;;;;;;;;;5069061;28;20024;-47
2022/05/10 13:40:41;;;;;;;2.20;1.30;;;;;;;;;;5060301;28;20032;-50
2022/05/10 13:43:10;;;;;;;1.52;1.10;;;;;;;;;;5065186;28;20036;-51
2022/05/10 13:45:36;;;;;;;1.30;0.90;;;;;;;;;;5061152;28;20024;-49
2022/05/10 13:48:07;;;;;;;2.92;1.58;;;;;;;;;;5063388;28;20031;-51
2022/05/10 13:50:34;;;;;;;3.22;1.15;;;;;;;;;;5044520;28;20023;-49
2022/05/10 13:53:02;;;;;;;2.67;1.48;;;;;;;;;;5062134;28;20021;-51
2022/05/10 13:55:29;;;;;;;2.05;1.10;;;;;;;;;;5070115;28;20518;-49
2022/05/10 13:58:04;;;;;;;1.65;1.10;;;;;;;;;;5070372;28;20701;-49
2022/05/10 14:00:35;;;;;;;4.30;1.10;;;;;;;;;;5069990;28;20108;-52
2022/05/10 14:03:01;;;;;;;3.10;1.20;;;;;;;;;;5070351;28;20036;-51
2022/05/10 14:05:29;;;;;;;2.45;1.38;;;;;;;;;;5060795;28;20029;-49
2022/05/10 14:08:00;;;;;;;2.42;1.30;;;;;;;;;;5053155;28;20090;-52
2022/05/10 14:10:34;;;;;;;1.67;0.98;;;;;;;;;;5040445;28;20101;-51
2022/05/10 14:13:03;;;;;;;5.05;1.60;;;;;;;;;;5059824;28;20115;-50
2022/05/10 14:15:39;;;;;;;2.10;1.30;;;;;;;;;;5064395;28;20045;-49
2022/05/10 14:18:06;;;;;;;2.28;1.33;;;;;;;;;;5063355;28;20503;-48
2022/05/10 14:20:35;;;;;;;2.17;1.10;;;;;;;;;;5055903;28;20052;-50
2022/05/10 14:23:02;;;;;;;3.35;1.40;;;;;;;;;;5065761;28;20045;-48
2022/05/10 14:25:31;;;;;;;2.22;1.35;;;;;;;;;;5059856;28;20039;-51
2022/05/10 14:28:05;;;;;;;2.33;1.10;;;;;;;;;;5061046;28;20036;-49
2022/05/10 14:30:37;;;;;;;5.05;1.45;;;;;;;;;;5060739;28;20711;-52
2022/05/10 14:33:13;;;;;;;1.85;1.05;;;;;;;;;;5054213;28;20035;-50
2022/05/10 14:35:39;;;;;;;3.25;1.30;;;;;;;;;;5061454;28;20028;-48
2022/05/10 14:38:14;;;;;;;4.50;1.00;;;;;;;;;;5063135;28;20546;-51
2022/05/10 14:40:41;;;;;;;2.95;1.10;;;;;;;;;;5059621;28;20024;-52
2022/05/10 14:43:13;;;;;;;2.35;1.10;;;;;;;;;;5063289;28;20418;-49
2022/05/10 14:45:43;;;;;;;1.75;1.17;;;;;;;;;;5063650;28;20028;-50
2022/05/10 14:48:23;;;;;;;2.72;1.10;;;;;;;;;;5055375;28;20036;-48
2022/05/10 14:50:58;;;;;;;1.85;1.00;;;;;;;;;;5058269;28;20526;-49
2022/05/10 14:53:26;;;;;;;1.85;1.10;;;;;;;;;;5068952;28;20020;-48
2022/05/10 14:56:12;;;;;;;3.67;1.10;;;;;;;;;;5068317;28;20439;-52
2022/05/10 14:58:43;;;;;;;3.45;1.00;;;;;;;;;;5056015;28;20032;-53
2022/05/10 15:01:13;;;;;;;1.50;0.95;;;;;;;;;;5060472;28;20021;-49
2022/05/10 15:03:40;;;;;;;2.72;1.10;;;;;;;;;;5062939;28;20017;-49
2022/05/10 15:06:11;;;;;;;3.17;1.20;;;;;;;;;;5068190;28;20488;-51
2022/05/10 15:08:37;;;;;;;2.55;1.20;;;;;;;;;;5059625;28;20032;-49
2022/05/10 15:11:05;;;;;;;5.18;1.10;;;;;;;;;;5068869;28;20092;-48
2022/05/10 15:13:31;;;;;;;2.08;0.93;;;;;;;;;;5058945;28;20021;-48
2022/05/10 15:16:02;;;;;;;2.13;1.08;;;;;;;;;;5064824;28;20071;-50